createdAt,value
2023-05-15T00:02:24.048Z,89.20
2023-05-15T00:04:51.295Z,89.82
2023-05-15T00:07:18.336Z,89.25
2023-05-15T00:09:45.285Z,89.93
2023-05-15T00:12:12.263Z,89.54
2023-05-15T00:14:39.180Z,89.69
2023-05-15T00:17:06.465Z,89.83
2023-05-15T00:19:33.443Z,90.24
2023-05-15T00:22:00.339Z,90.22
2023-05-15T00:24:27.235Z,90.53
2023-05-15T00:26:54.204Z,90.46
2023-05-15T00:29:21.140Z,90.49
2023-05-15T00:31:48.158Z,91.07
2023-05-15T00:34:15.169Z,91.01
2023-05-15T00:36:42.084Z,90.58
2023-05-15T00:39:09.049Z,91.02
2023-05-15T00:41:37.672Z,90.63
2023-05-15T00:44:07.181Z,90.83
2023-05-15T00:46:36.241Z,90.32
2023-05-15T00:49:13.770Z,90.49
2023-05-15T00:51:43.953Z,91.03
2023-05-15T00:54:11.723Z,91.21
2023-05-15T00:56:39.593Z,91.02
2023-05-15T00:59:07.912Z,91.13
2023-05-15T01:01:35.342Z,90.63
2023-05-15T01:04:03.335Z,91.06
2023-05-15T01:06:31.704Z,90.55
2023-05-15T01:09:06.945Z,90.65
2023-05-15T01:11:36.645Z,90.25
2023-05-15T01:14:08.976Z,90.55
2023-05-15T01:16:36.991Z,90.61
2023-05-15T01:19:05.500Z,90.63
2023-05-15T01:21:35.727Z,90.98
2023-05-15T01:24:53.236Z,90.51
2023-05-15T01:27:45.778Z,90.22
2023-05-15T01:30:23.719Z,90.58
2023-05-15T01:33:07.267Z,90.41
2023-05-15T01:35:44.202Z,90.75
2023-05-15T01:38:36.155Z,90.65
2023-05-15T01:41:14.923Z,90.74
2023-05-15T01:43:46.096Z,90.85
2023-05-15T01:46:20.552Z,91.47
2023-05-15T01:48:50.351Z,91.38
2023-05-15T01:51:19.376Z,91.41
2023-05-15T01:53:47.705Z,91.46
2023-05-15T01:56:16.593Z,92.13
2023-05-15T01:58:45.072Z,91.87
2023-05-15T02:01:13.552Z,92.27
2023-05-15T02:03:41.612Z,92.04
2023-05-15T02:06:09.741Z,91.86
2023-05-15T02:08:37.501Z,92.49
2023-05-15T02:11:05.284Z,92.19
2023-05-15T02:13:34.036Z,91.86
2023-05-15T02:16:01.130Z,91.93
2023-05-15T02:18:29.323Z,92.29
2023-05-15T02:20:56.312Z,92.30
2023-05-15T02:23:23.254Z,92.47
2023-05-15T02:26:11.754Z,92.63
2023-05-15T02:28:58.747Z,93.00
2023-05-15T02:31:37.098Z,93.29
2023-05-15T02:34:18.043Z,93.09
2023-05-15T02:36:48.903Z,93.01
2023-05-15T02:39:17.086Z,93.22
2023-05-15T02:41:46.422Z,93.24
2023-05-15T02:44:15.389Z,93.75
2023-05-15T02:46:42.616Z,93.48
2023-05-15T02:49:11.005Z,93.21
2023-05-15T02:51:38.013Z,93.34
2023-05-15T02:54:06.773Z,93.17
2023-05-15T02:56:33.859Z,93.21
2023-05-15T02:59:00.867Z,93.34
2023-05-15T03:01:27.865Z,92.92
2023-05-15T03:03:54.878Z,92.85
2023-05-15T03:06:21.850Z,92.99
2023-05-15T03:08:48.744Z,92.93
2023-05-15T03:11:15.726Z,92.91
2023-05-15T03:13:42.761Z,92.89
2023-05-15T03:16:09.691Z,92.62
2023-05-15T03:18:36.728Z,92.81
2023-05-15T03:21:03.776Z,92.92
2023-05-15T03:23:32.338Z,92.52
2023-05-15T03:25:59.201Z,92.70
2023-05-15T03:28:26.202Z,92.97
2023-05-15T03:30:53.228Z,92.56
2023-05-15T03:33:20.216Z,92.77
2023-05-15T03:35:47.190Z,92.82
2023-05-15T03:38:14.114Z,92.76
2023-05-15T03:40:41.138Z,92.77
2023-05-15T03:43:08.053Z,92.70
2023-05-15T03:45:38.017Z,92.84
2023-05-15T03:48:05.855Z,92.79
2023-05-15T03:50:33.335Z,92.74
2023-05-15T03:53:00.620Z,92.81
2023-05-15T03:55:27.821Z,92.96
2023-05-15T03:57:55.356Z,92.71
2023-05-15T04:00:22.516Z,92.72
2023-05-15T04:02:49.964Z,92.78
2023-05-15T04:05:17.749Z,92.62
2023-05-15T04:07:44.681Z,92.86
2023-05-15T04:10:11.646Z,93.09
2023-05-15T04:12:38.683Z,92.95
2023-05-15T04:15:19.937Z,93.70
2023-05-15T04:17:48.588Z,93.69
2023-05-15T04:20:18.652Z,94.23
2023-05-15T04:22:46.721Z,94.16
2023-05-15T04:25:18.293Z,94.44
2023-05-15T04:27:45.467Z,93.57
2023-05-15T04:30:13.713Z,93.74
2023-05-15T04:32:41.317Z,93.96
2023-05-15T04:35:10.795Z,94.02
2023-05-15T04:37:39.489Z,94.27
2023-05-15T04:40:08.385Z,94.54
2023-05-15T04:42:38.399Z,94.82
2023-05-15T04:45:07.366Z,95.25
2023-05-15T04:47:34.570Z,94.74
2023-05-15T04:50:01.539Z,95.22
2023-05-15T04:52:28.461Z,94.40
2023-05-15T04:54:56.263Z,94.77
2023-05-15T04:57:23.630Z,94.29
2023-05-15T04:59:50.732Z,94.45
2023-05-15T05:02:22.809Z,94.42
2023-05-15T05:04:50.456Z,94.40
2023-05-15T05:07:17.821Z,94.48
2023-05-15T05:09:44.989Z,93.87
2023-05-15T05:12:12.004Z,94.27
2023-05-15T05:14:40.903Z,94.55
2023-05-15T05:17:08.078Z,94.13
2023-05-15T05:19:35.012Z,93.70
2023-05-15T05:22:05.784Z,93.81
2023-05-15T05:24:33.282Z,93.27
2023-05-15T05:27:00.535Z,92.10
2023-05-15T05:29:27.618Z,92.30
2023-05-15T05:31:54.703Z,91.13
2023-05-15T05:34:22.211Z,90.48
2023-05-15T05:36:49.837Z,90.11
2023-05-15T05:39:17.722Z,89.60
2023-05-15T05:41:45.024Z,90.26
2023-05-15T05:44:12.156Z,90.48
2023-05-15T05:46:39.124Z,90.56
2023-05-15T05:49:06.264Z,89.55
2023-05-15T05:51:36.876Z,89.13
2023-05-15T05:54:04.306Z,88.49
2023-05-15T05:56:31.634Z,87.77
2023-05-15T05:58:59.856Z,86.87
2023-05-15T06:01:27.899Z,87.30
2023-05-15T06:03:56.192Z,85.66
2023-05-15T06:06:23.351Z,84.67
2023-05-15T06:08:50.298Z,83.89
2023-05-15T06:11:23.791Z,83.03
2023-05-15T06:13:52.957Z,81.91
2023-05-15T06:16:20.011Z,79.47
2023-05-15T06:18:47.148Z,76.41
2023-05-15T06:21:14.107Z,73.65
2023-05-15T06:23:41.158Z,72.58
2023-05-15T06:26:08.197Z,72.09
2023-05-15T06:28:35.226Z,70.51
2023-05-15T06:31:02.315Z,69.45
2023-05-15T06:33:29.364Z,69.12
2023-05-15T06:35:56.559Z,65.83
2023-05-15T06:38:23.582Z,66.39
2023-05-15T06:40:50.506Z,64.74
2023-05-15T06:43:17.423Z,64.48
2023-05-15T06:45:44.339Z,65.43
2023-05-15T06:48:11.256Z,65.46
2023-05-15T06:50:38.187Z,65.90
2023-05-15T06:53:05.130Z,67.89
2023-05-15T06:55:34.363Z,68.75
2023-05-15T06:58:01.412Z,69.55
2023-05-15T07:00:28.356Z,70.81
2023-05-15T07:02:55.316Z,71.73
2023-05-15T07:05:22.357Z,71.23
2023-05-15T07:07:49.351Z,72.50
2023-05-15T07:10:16.326Z,71.01
2023-05-15T07:12:43.283Z,69.54
2023-05-15T07:15:10.917Z,68.47
2023-05-15T07:17:37.958Z,68.95
2023-05-15T07:20:06.426Z,66.91
2023-05-15T07:22:36.402Z,67.17
2023-05-15T07:25:06.796Z,65.87
2023-05-15T07:27:33.764Z,66.41
2023-05-15T07:30:04.194Z,67.88
2023-05-15T07:32:31.439Z,67.55
2023-05-15T07:34:58.368Z,67.10
2023-05-15T07:37:25.893Z,67.22
2023-05-15T07:39:53.037Z,67.50
2023-05-15T07:42:19.998Z,66.89
2023-05-15T07:44:49.396Z,67.58
2023-05-15T07:47:17.109Z,65.73
2023-05-15T07:49:44.075Z,65.54
2023-05-15T07:52:11.133Z,65.25
2023-05-15T07:54:39.743Z,64.91
2023-05-15T07:57:06.673Z,65.82
2023-05-15T07:59:33.765Z,66.92
2023-05-15T08:02:00.755Z,66.86
2023-05-15T08:04:27.903Z,63.35
2023-05-15T08:06:54.981Z,62.46
2023-05-15T08:09:21.921Z,62.52
2023-05-15T08:11:48.833Z,63.19
2023-05-15T08:14:15.848Z,63.61
2023-05-15T08:16:42.775Z,64.94
2023-05-15T08:19:10.558Z,65.72
2023-05-15T08:21:37.542Z,66.00
2023-05-15T08:24:04.843Z,65.61
2023-05-15T08:26:31.916Z,63.84
2023-05-15T08:28:58.893Z,60.21
2023-05-15T08:31:25.966Z,58.20
2023-05-15T08:33:52.898Z,58.63
2023-05-15T08:36:20.226Z,58.61
2023-05-15T08:38:47.214Z,59.02
2023-05-15T08:41:53.017Z,59.30
2023-05-15T08:44:21.816Z,57.38
2023-05-15T08:46:49.577Z,54.42
2023-05-15T08:49:57.227Z,54.02
2023-05-15T08:52:25.980Z,53.92
2023-05-15T08:54:53.513Z,53.55
2023-05-15T08:57:20.712Z,53.61
2023-05-15T08:59:48.953Z,52.50
2023-05-15T09:02:16.470Z,53.55
2023-05-15T09:04:43.422Z,54.96
2023-05-15T09:07:12.114Z,52.84
2023-05-15T09:09:39.953Z,54.24
2023-05-15T09:12:11.679Z,54.53
2023-05-15T09:14:38.788Z,53.95
2023-05-15T09:17:06.433Z,53.46
2023-05-15T09:19:38.709Z,52.43
2023-05-15T09:22:23.594Z,51.91
2023-05-15T09:24:53.469Z,50.73
2023-05-15T09:27:20.916Z,50.30
2023-05-15T09:29:47.959Z,51.61
2023-05-15T09:32:15.973Z,52.93
2023-05-15T09:34:45.614Z,53.44
2023-05-15T09:37:33.074Z,54.68
2023-05-15T09:40:11.497Z,55.55
2023-05-15T09:42:39.499Z,57.02
2023-05-15T09:45:07.385Z,57.31
2023-05-15T09:47:34.740Z,55.44
2023-05-15T09:50:02.286Z,52.76
2023-05-15T09:52:30.383Z,53.42
2023-05-15T09:54:58.003Z,53.78
2023-05-15T09:57:25.060Z,50.52
2023-05-15T09:59:52.066Z,50.51
2023-05-15T10:02:35.504Z,50.22
2023-05-15T10:05:02.605Z,49.07
2023-05-15T10:07:34.104Z,49.42
2023-05-15T10:10:04.051Z,48.96
2023-05-15T10:12:32.559Z,49.88
2023-05-15T10:15:01.290Z,50.50
2023-05-15T10:17:29.675Z,50.72
2023-05-15T10:20:00.997Z,51.12
2023-05-15T10:22:37.926Z,51.19
2023-05-15T10:25:16.681Z,51.73
2023-05-15T10:27:44.057Z,50.57
2023-05-15T10:30:12.399Z,49.09
2023-05-15T10:32:42.178Z,48.98
2023-05-15T10:35:12.095Z,48.77
2023-05-15T10:37:42.185Z,49.16
2023-05-15T10:40:11.022Z,47.62
2023-05-15T10:42:39.050Z,47.06
2023-05-15T10:45:09.285Z,46.56
2023-05-15T10:47:39.092Z,47.73
2023-05-15T10:50:07.602Z,46.23
2023-05-15T10:52:37.377Z,46.01
2023-05-15T10:55:15.359Z,45.62
2023-05-15T10:57:43.063Z,44.62
2023-05-15T11:00:31.731Z,43.65
2023-05-15T11:02:59.454Z,45.92
2023-05-15T11:05:27.284Z,47.45
2023-05-15T11:08:18.026Z,49.33
2023-05-15T11:10:45.413Z,47.88
2023-05-15T11:13:12.352Z,47.19
2023-05-15T11:15:44.914Z,47.44
2023-05-15T11:18:12.449Z,47.06
2023-05-15T11:21:04.078Z,46.49
2023-05-15T11:23:40.406Z,47.96
2023-05-15T11:26:07.410Z,48.36
2023-05-15T11:28:43.870Z,48.02
2023-05-15T11:31:11.049Z,47.41
2023-05-15T11:33:40.847Z,46.53
2023-05-15T11:36:08.692Z,45.30
2023-05-15T11:38:40.385Z,45.25
2023-05-15T11:41:19.785Z,47.37
2023-05-15T11:43:47.180Z,46.60
2023-05-15T11:46:15.444Z,46.75
2023-05-15T11:48:50.165Z,46.90
2023-05-15T11:51:21.872Z,47.40
2023-05-15T11:53:54.828Z,47.81
2023-05-15T11:56:30.899Z,45.58
2023-05-15T11:59:00.666Z,46.15
2023-05-15T12:01:29.632Z,45.35
2023-05-15T12:03:56.865Z,45.52
2023-05-15T12:06:26.005Z,45.61
2023-05-15T12:08:54.007Z,46.12
2023-05-15T12:11:24.898Z,45.85
2023-05-15T12:13:56.691Z,45.37
2023-05-15T12:16:26.613Z,46.23
2023-05-15T12:18:54.274Z,45.34
2023-05-15T12:21:21.258Z,45.24
2023-05-15T12:26:27.953Z,43.81
2023-05-15T12:28:56.065Z,44.76
2023-05-15T12:31:23.378Z,45.15
2023-05-15T12:33:50.602Z,45.23
2023-05-15T12:36:21.692Z,44.88
2023-05-15T12:38:49.347Z,44.61
2023-05-15T12:41:16.366Z,44.08
2023-05-15T12:43:43.378Z,44.33
2023-05-15T12:46:10.665Z,44.66
2023-05-15T12:48:37.960Z,43.98
2023-05-15T12:51:09.313Z,43.51
2023-05-15T12:53:40.204Z,43.91
2023-05-15T12:56:08.558Z,45.30
2023-05-15T12:58:36.120Z,45.53
2023-05-15T13:01:03.954Z,45.77
2023-05-15T13:03:32.124Z,44.96
2023-05-15T13:05:59.614Z,45.56
2023-05-15T13:08:45.867Z,44.48
2023-05-15T13:11:14.776Z,42.98
2023-05-15T13:13:47.108Z,41.02
2023-05-15T13:16:22.733Z,41.37
2023-05-15T13:19:09.914Z,42.90
2023-05-15T13:21:46.321Z,42.49
2023-05-15T13:24:13.401Z,42.25
2023-05-15T13:26:40.589Z,42.85
2023-05-15T13:29:07.520Z,43.21
2023-05-15T13:31:34.530Z,43.29
2023-05-15T13:34:01.631Z,42.72
2023-05-15T13:36:28.698Z,42.20
2023-05-15T13:38:56.288Z,43.46
2023-05-15T13:41:23.336Z,42.27
2023-05-15T13:43:51.740Z,42.34
2023-05-15T13:46:18.804Z,42.54
2023-05-15T13:48:45.816Z,42.23
2023-05-15T13:51:12.737Z,42.28
2023-05-15T13:53:39.816Z,42.31
2023-05-15T13:56:06.996Z,42.25
2023-05-15T13:58:34.038Z,42.15
2023-05-15T14:01:07.308Z,41.50
2023-05-15T14:03:34.843Z,42.23
2023-05-15T14:06:01.889Z,41.41
2023-05-15T14:08:28.855Z,42.62
2023-05-15T14:10:56.284Z,42.33
2023-05-15T14:13:23.879Z,43.50
2023-05-15T14:15:51.324Z,42.82
2023-05-15T14:18:18.245Z,42.65
2023-05-15T14:20:45.180Z,42.25
2023-05-15T14:23:12.108Z,42.23
2023-05-15T14:25:39.043Z,41.18
2023-05-15T14:28:05.981Z,40.87
2023-05-15T14:30:32.942Z,41.55
2023-05-15T14:32:59.841Z,40.79
2023-05-15T14:35:26.750Z,41.98
2023-05-15T14:37:53.694Z,41.78
2023-05-15T14:40:20.671Z,42.06
2023-05-15T14:42:47.625Z,42.10
2023-05-15T14:45:14.643Z,41.35
2023-05-15T14:47:41.639Z,40.76
2023-05-15T14:50:08.691Z,41.98
2023-05-15T14:52:35.814Z,42.74
2023-05-15T14:57:32.946Z,43.07
2023-05-15T14:59:59.934Z,43.88
2023-05-15T15:02:26.870Z,43.84
2023-05-15T15:04:53.940Z,43.83
2023-05-15T15:07:20.925Z,44.51
2023-05-15T15:09:47.892Z,44.71
2023-05-15T15:12:14.827Z,42.75
2023-05-15T15:14:42.001Z,42.21
2023-05-15T15:17:08.931Z,42.40
2023-05-15T15:19:35.920Z,42.96
2023-05-15T15:22:02.909Z,43.04
2023-05-15T15:24:30.038Z,42.78
2023-05-15T15:26:56.951Z,43.35
2023-05-15T15:29:23.987Z,43.02
2023-05-15T15:31:51.055Z,43.42
2023-05-15T15:34:18.050Z,42.93
2023-05-15T15:36:45.431Z,42.95
2023-05-15T15:39:13.281Z,41.80
2023-05-15T15:41:40.229Z,42.25
2023-05-15T15:44:07.315Z,43.55
2023-05-15T15:46:34.266Z,43.50
2023-05-15T15:49:01.714Z,42.78
2023-05-15T15:51:29.696Z,43.52
2023-05-15T15:53:56.709Z,43.39
2023-05-15T15:56:23.717Z,43.14
2023-05-15T15:58:50.705Z,43.65
2023-05-15T16:01:17.854Z,43.68
2023-05-15T16:03:44.904Z,43.44
2023-05-15T16:06:14.892Z,43.72
2023-05-15T16:08:41.868Z,43.49
2023-05-15T16:11:08.818Z,44.85
2023-05-15T16:13:35.892Z,43.93
2023-05-15T16:16:03.012Z,44.57
2023-05-15T16:18:29.983Z,44.39
2023-05-15T16:20:57.377Z,45.07
2023-05-15T16:23:24.811Z,45.43
2023-05-15T16:25:51.897Z,44.11
2023-05-15T16:28:18.827Z,44.92
2023-05-15T16:30:49.807Z,44.91
2023-05-15T16:33:18.559Z,45.51
2023-05-15T16:35:46.496Z,45.55
2023-05-15T16:38:14.130Z,45.46
2023-05-15T16:40:41.733Z,45.76
2023-05-15T16:43:08.893Z,46.12
2023-05-15T16:45:35.983Z,45.07
2023-05-15T16:48:03.235Z,45.01
2023-05-15T16:50:32.675Z,45.07
2023-05-15T16:52:59.727Z,45.72
2023-05-15T16:55:27.052Z,44.75
2023-05-15T16:57:54.141Z,45.18
2023-05-15T17:00:30.158Z,45.07
2023-05-15T17:02:57.127Z,45.70
2023-05-15T17:05:24.138Z,45.24
2023-05-15T17:07:51.076Z,45.93
2023-05-15T17:10:17.993Z,46.03
2023-05-15T17:12:45.361Z,46.43
2023-05-15T17:15:13.425Z,46.89
2023-05-15T17:17:40.426Z,46.71
2023-05-15T17:20:08.407Z,46.65
2023-05-15T17:22:35.663Z,46.40
2023-05-15T17:25:02.775Z,46.22
2023-05-15T17:27:30.239Z,46.78
2023-05-15T17:29:57.444Z,46.69
2023-05-15T17:32:24.573Z,46.14
2023-05-15T17:34:51.700Z,46.79
2023-05-15T17:37:18.744Z,46.89
2023-05-15T17:39:45.647Z,47.06
2023-05-15T17:42:12.719Z,47.36
2023-05-15T17:44:39.794Z,48.02
2023-05-15T17:47:07.149Z,48.55
2023-05-15T17:49:34.726Z,48.50
2023-05-15T17:52:01.987Z,48.48
2023-05-15T17:54:28.947Z,49.03
2023-05-15T17:56:56.113Z,49.14
2023-05-15T17:59:23.284Z,49.41
2023-05-15T18:01:50.217Z,49.77
2023-05-15T18:04:17.265Z,50.27
2023-05-15T18:06:44.295Z,50.38
2023-05-15T18:09:12.067Z,50.50
2023-05-15T18:11:38.975Z,50.95
2023-05-15T18:14:05.916Z,50.53
2023-05-15T18:16:33.026Z,51.35
2023-05-15T18:19:00.326Z,52.33
2023-05-15T18:21:27.484Z,52.49
2023-05-15T18:23:54.454Z,52.87
2023-05-15T18:26:21.818Z,53.79
2023-05-15T18:28:49.780Z,53.76
2023-05-15T18:31:16.833Z,54.59
2023-05-15T18:33:45.249Z,54.72
2023-05-15T18:36:12.207Z,53.92
2023-05-15T18:38:39.206Z,52.89
2023-05-15T18:41:06.357Z,52.92
2023-05-15T18:43:33.310Z,53.43
2023-05-15T18:46:00.316Z,53.71
2023-05-15T18:48:27.263Z,54.49
2023-05-15T18:50:54.525Z,53.90
2023-05-15T18:53:21.918Z,54.08
2023-05-15T18:55:48.977Z,53.78
2023-05-15T18:58:16.074Z,54.68
2023-05-15T19:00:43.834Z,54.26
2023-05-15T19:03:11.767Z,54.40
2023-05-15T19:05:39.641Z,54.79
2023-05-15T19:08:08.667Z,55.70
2023-05-15T19:10:35.921Z,55.73
2023-05-15T19:13:03.719Z,56.39
2023-05-15T19:15:31.519Z,57.22
2023-05-15T19:17:58.821Z,57.80
2023-05-15T19:20:27.266Z,58.09
2023-05-15T19:22:56.055Z,58.82
2023-05-15T19:25:24.136Z,59.08
2023-05-15T19:27:52.934Z,59.43
2023-05-15T19:30:20.710Z,59.92
2023-05-15T19:32:48.156Z,60.77
2023-05-15T19:35:15.627Z,61.23
2023-05-15T19:37:42.757Z,61.58
2023-05-15T19:40:10.215Z,62.40
2023-05-15T19:42:37.411Z,64.04
2023-05-15T19:45:05.170Z,64.32
2023-05-15T19:47:32.128Z,64.28
2023-05-15T19:49:59.053Z,64.81
2023-05-15T19:52:25.990Z,64.80
2023-05-15T19:54:52.944Z,65.12
2023-05-15T19:57:19.891Z,65.70
2023-05-15T19:59:46.978Z,65.82
2023-05-15T20:02:13.934Z,65.99
2023-05-15T20:04:40.942Z,66.23
2023-05-15T20:07:08.005Z,67.16
2023-05-15T20:09:35.794Z,66.75
2023-05-15T20:12:06.223Z,67.11
2023-05-15T20:14:34.458Z,68.06
2023-05-15T20:17:01.417Z,68.10
2023-05-15T20:19:33.354Z,68.10
2023-05-15T20:22:00.298Z,68.70
2023-05-15T20:24:27.240Z,69.03
2023-05-15T20:26:54.193Z,70.24
2023-05-15T20:29:21.164Z,69.84
2023-05-15T20:31:48.142Z,69.80
2023-05-15T20:34:16.254Z,70.63
2023-05-15T20:36:43.893Z,70.82
2023-05-15T20:39:10.871Z,70.79
2023-05-15T20:41:37.974Z,71.52
2023-05-15T20:44:04.969Z,71.59
2023-05-15T20:46:32.151Z,72.04
2023-05-15T20:48:59.189Z,71.90
2023-05-15T20:51:26.289Z,72.25
2023-05-15T20:53:53.240Z,72.14
2023-05-15T20:56:20.504Z,72.24
2023-05-15T20:58:47.590Z,72.53
2023-05-15T21:01:15.819Z,73.00
2023-05-15T21:03:43.564Z,73.25
2023-05-15T21:06:10.612Z,73.71
2023-05-15T21:08:37.580Z,73.90
2023-05-15T21:11:04.544Z,74.49
2023-05-15T21:13:31.462Z,73.98
2023-05-15T21:15:58.369Z,74.15
2023-05-15T21:18:25.326Z,73.66
2023-05-15T21:20:54.625Z,74.13
2023-05-15T21:23:23.677Z,73.81
2023-05-15T21:25:53.284Z,74.22
2023-05-15T21:28:24.066Z,74.30
2023-05-15T21:30:52.988Z,74.50
2023-05-15T21:33:21.850Z,74.80
2023-05-15T21:35:49.394Z,74.74
2023-05-15T21:38:17.621Z,74.75
2023-05-15T21:40:46.776Z,74.84
2023-05-15T21:43:14.380Z,75.15
2023-05-15T21:45:43.346Z,75.10
2023-05-15T21:48:12.431Z,75.50
2023-05-15T21:50:41.767Z,75.63
2023-05-15T21:53:10.755Z,76.03
2023-05-15T21:55:38.762Z,75.92
2023-05-15T21:58:08.417Z,76.41
2023-05-15T22:00:37.752Z,76.65
2023-05-15T22:03:09.117Z,76.77
2023-05-15T22:05:38.708Z,76.78
2023-05-15T22:08:07.849Z,77.10
2023-05-15T22:10:37.278Z,77.59
2023-05-15T22:13:06.788Z,77.20
2023-05-15T22:15:36.076Z,77.60
2023-05-15T22:18:09.705Z,78.34
2023-05-15T22:20:36.662Z,77.92
2023-05-15T22:23:03.637Z,77.98
2023-05-15T22:25:31.253Z,78.25
2023-05-15T22:27:58.202Z,79.04
2023-05-15T22:30:25.193Z,78.35
2023-05-15T22:32:52.401Z,78.73
2023-05-15T22:35:19.593Z,79.03
2023-05-15T22:37:46.933Z,79.00
2023-05-15T22:40:14.015Z,79.20
2023-05-15T22:42:41.268Z,78.78
2023-05-15T22:45:09.494Z,79.23
2023-05-15T22:47:36.586Z,79.31
2023-05-15T22:50:03.786Z,79.56
2023-05-15T22:52:30.901Z,79.64
2023-05-15T22:54:58.101Z,79.68
2023-05-15T22:57:27.076Z,79.61
2023-05-15T22:59:55.278Z,79.76
2023-05-15T23:02:22.220Z,79.98
2023-05-15T23:04:49.169Z,79.71
2023-05-15T23:07:17.482Z,80.06
2023-05-15T23:09:44.628Z,80.14
2023-05-15T23:12:11.570Z,80.12
2023-05-15T23:14:38.492Z,80.15
2023-05-15T23:17:05.748Z,79.95
2023-05-15T23:19:32.722Z,80.28
2023-05-15T23:21:59.738Z,80.01
2023-05-15T23:24:26.686Z,80.87
2023-05-15T23:26:53.681Z,80.82
2023-05-15T23:29:20.637Z,80.98
2023-05-15T23:31:47.704Z,80.86
2023-05-15T23:34:14.749Z,81.17
2023-05-15T23:36:41.816Z,81.21
2023-05-15T23:39:09.584Z,81.42
2023-05-15T23:41:36.709Z,81.83
2023-05-15T23:44:03.865Z,81.68
2023-05-15T23:46:31.002Z,81.77
2023-05-15T23:48:57.916Z,81.77
2023-05-15T23:51:25.257Z,81.90
2023-05-15T23:53:52.201Z,82.34
2023-05-15T23:56:19.127Z,82.65
2023-05-15T23:58:46.050Z,82.49
